Capt. Carl Page — WDC6538 — position and weather

sailwx.info

Track history (hours):
 
Tides and Currents Weather Stations Pressure Air Temp Water Temp Dewpoint Dewpoint Depression Visibility Wind Speed Wind Dir Waves Ship Positions

Capt. Carl Page

Owner: American Commercial Lines LLC, Jeffersonville, IN. More information available from US FCC via Universal Licensing System and Coast Guard Vessel Documentation Center.

Last reported at 2018-Jun-18 10:53 UTC. Time now 2018-Jun-25 04:29 UTC.
Position N 32°49' W 091°09'.

Length 55 m; draft 3.1 m.

Type: Towing. MMSI: 367057650.

Date/timePositionNaut miles runAvg speedWind from/ knotsBaromVisibWave heightAir tempDewpointWater temp
2018-Jun-18 10:53N 32°49' W 091°09'2 4.7
2018-Jun-18 10:23N 32°47' W 091°09'5 3.9
2018-Jun-18 09:08N 32°44' W 091°04'0 2.5
2018-Jun-18 09:00N 32°44' W 091°04'4 0.9
2018-Jun-18 05:00N 32°41' W 091°06'2 4.5
2018-Jun-18 04:30N 32°40' W 091°08'2 4.1
2018-Jun-18 04:00N 32°38' W 091°09'3 5.4
2018-Jun-18 03:30N 32°35' W 091°08'2 5.0
2018-Jun-18 03:00N 32°33' W 091°06'3 5.1
2018-Jun-18 02:30N 32°31' W 091°07'3 5.3
2018-Jun-18 02:00N 32°28' W 091°06'3 5.3
2018-Jun-18 01:30N 32°27' W 091°04'3 5.4
2018-Jun-18 01:00N 32°26' W 091°01'2 4.5
2018-Jun-18 00:30N 32°24' W 090°60'2 4.6
2018-Jun-18 00:00N 32°21' W 090°60'3 5.2
2018-Jun-17 23:30N 32°21' W 090°57'3 5.1
2018-Jun-17 23:00N 32°20' W 090°54'2 4.5
2018-Jun-17 22:30N 32°18' W 090°55'2 3.2
2018-Jun-17 22:00N 32°17' W 090°57'0 0.0
2018-Jun-17 21:30N 32°17' W 090°57'2 4.2
2018-Jun-17 21:00N 32°15' W 090°59'2 4.8
2018-Jun-17 20:30N 32°13' W 090°59'2 4.9
2018-Jun-17 20:00N 32°10' W 090°60'2 5.0
2018-Jun-17 19:30N 32°08' W 091°00'2 4.4
2018-Jun-17 18:59N 32°08' W 091°03'2 5.1
2018-Jun-17 18:30N 32°08' W 091°06'4 4.5
2018-Jun-17 17:39N 32°05' W 091°04'1 5.0
2018-Jun-17 17:26N 32°04' W 091°03'2 5.1
2018-Jun-17 17:00N 32°01' W 091°04'6 5.0
2018-Jun-17 15:48N 31°59' W 091°10'12 4.0
2018-Jun-17 12:45N 31°50' W 091°21'8 2.6
2018-Jun-17 09:34N 31°42' W 091°24'0 5.3
2018-Jun-17 09:30N 31°42' W 091°24'  
2018-Jun-13 19:50N 31°59' W 091°06'3 7.9
2018-Jun-13 19:30N 32°01' W 091°04'5 7.2
2018-Jun-13 18:45N 32°06' W 091°06'2 6.3
2018-Jun-13 18:30N 32°08' W 091°06'4 8.0
2018-Jun-13 18:00N 32°07' W 091°01'4 8.1
2018-Jun-13 17:30N 32°11' W 090°60'4 8.5
2018-Jun-13 17:00N 32°15' W 090°58'4 7.6
2018-Jun-13 16:30N 32°18' W 090°55'0 0.2
2018-Jun-13 15:58N 32°18' W 090°55'0 0.5
2018-Jun-13 15:30N 32°18' W 090°55'3 5.2
2018-Jun-13 15:00N 32°21' W 090°55'4 7.8
2018-Jun-13 14:30N 32°21' W 090°60'4 7.4
2018-Jun-13 14:00N 32°25' W 090°60'4 7.7
2018-Jun-13 13:30N 32°26' W 091°04'4 7.6
2018-Jun-13 13:00N 32°29' W 091°07'4 8.1
2018-Jun-13 12:30N 32°33' W 091°06'4 7.7
2018-Jun-13 12:00N 32°36' W 091°09'4 7.2
2018-Jun-13 11:29N 32°40' W 091°08'5 7.5
2018-Jun-13 10:49N 32°43' W 091°03'2 6.5
2018-Jun-13 10:30N 32°44' W 091°05'3 6.9
2018-Jun-13 10:00N 32°45' W 091°09'4 7.6
2018-Jun-13 09:29N 32°49' W 091°09'9 4.8
2018-Jun-13 07:42N 32°58' W 091°09'1 2.9
2018-Jun-13 07:30N 32°58' W 091°10'  
Track history (hours):
 
Tides and Currents Weather Stations Pressure Air Temp Water Temp Dewpoint Dewpoint Depression Visibility Wind Speed Wind Dir Waves Ship Positions

Capt. Carl Page

Owner: American Commercial Lines LLC, Jeffersonville, IN. More information available from US FCC via Universal Licensing System and Coast Guard Vessel Documentation Center.

Last reported at 2018-Jun-18 10:53 UTC. Time now 2018-Jun-25 04:29 UTC.
Position N 32°49' W 091°09'.

Length 55 m; draft 3.1 m.

Type: Towing. MMSI: 367057650.

Date/timePositionNaut miles runAvg speedWind from/ knotsBaromVisibWave heightAir tempDewpointWater temp
2018-Jun-18 10:53N 32°49' W 091°09'2 4.7
2018-Jun-18 10:23N 32°47' W 091°09'5 3.9
2018-Jun-18 09:08N 32°44' W 091°04'0 2.5
2018-Jun-18 09:00N 32°44' W 091°04'4 0.9
2018-Jun-18 05:00N 32°41' W 091°06'2 4.5
2018-Jun-18 04:30N 32°40' W 091°08'2 4.1
2018-Jun-18 04:00N 32°38' W 091°09'3 5.4
2018-Jun-18 03:30N 32°35' W 091°08'2 5.0
2018-Jun-18 03:00N 32°33' W 091°06'3 5.1
2018-Jun-18 02:30N 32°31' W 091°07'3 5.3
2018-Jun-18 02:00N 32°28' W 091°06'3 5.3
2018-Jun-18 01:30N 32°27' W 091°04'3 5.4
2018-Jun-18 01:00N 32°26' W 091°01'2 4.5
2018-Jun-18 00:30N 32°24' W 090°60'2 4.6
2018-Jun-18 00:00N 32°21' W 090°60'3 5.2
2018-Jun-17 23:30N 32°21' W 090°57'3 5.1
2018-Jun-17 23:00N 32°20' W 090°54'2 4.5
2018-Jun-17 22:30N 32°18' W 090°55'2 3.2
2018-Jun-17 22:00N 32°17' W 090°57'0 0.0
2018-Jun-17 21:30N 32°17' W 090°57'2 4.2
2018-Jun-17 21:00N 32°15' W 090°59'2 4.8
2018-Jun-17 20:30N 32°13' W 090°59'2 4.9
2018-Jun-17 20:00N 32°10' W 090°60'2 5.0
2018-Jun-17 19:30N 32°08' W 091°00'2 4.4
2018-Jun-17 18:59N 32°08' W 091°03'2 5.1
2018-Jun-17 18:30N 32°08' W 091°06'4 4.5
2018-Jun-17 17:39N 32°05' W 091°04'1 5.0
2018-Jun-17 17:26N 32°04' W 091°03'2 5.1
2018-Jun-17 17:00N 32°01' W 091°04'6 5.0
2018-Jun-17 15:48N 31°59' W 091°10'12 4.0
2018-Jun-17 12:45N 31°50' W 091°21'8 2.6
2018-Jun-17 09:34N 31°42' W 091°24'0 5.3
2018-Jun-17 09:30N 31°42' W 091°24'  
2018-Jun-13 19:50N 31°59' W 091°06'3 7.9
2018-Jun-13 19:30N 32°01' W 091°04'5 7.2
2018-Jun-13 18:45N 32°06' W 091°06'2 6.3
2018-Jun-13 18:30N 32°08' W 091°06'4 8.0
2018-Jun-13 18:00N 32°07' W 091°01'4 8.1
2018-Jun-13 17:30N 32°11' W 090°60'4 8.5
2018-Jun-13 17:00N 32°15' W 090°58'4 7.6
2018-Jun-13 16:30N 32°18' W 090°55'0 0.2
2018-Jun-13 15:58N 32°18' W 090°55'0 0.5
2018-Jun-13 15:30N 32°18' W 090°55'3 5.2
2018-Jun-13 15:00N 32°21' W 090°55'4 7.8
2018-Jun-13 14:30N 32°21' W 090°60'4 7.4
2018-Jun-13 14:00N 32°25' W 090°60'4 7.7
2018-Jun-13 13:30N 32°26' W 091°04'4 7.6
2018-Jun-13 13:00N 32°29' W 091°07'4 8.1
2018-Jun-13 12:30N 32°33' W 091°06'4 7.7
2018-Jun-13 12:00N 32°36' W 091°09'4 7.2
2018-Jun-13 11:29N 32°40' W 091°08'5 7.5
2018-Jun-13 10:49N 32°43' W 091°03'2 6.5
2018-Jun-13 10:30N 32°44' W 091°05'3 6.9
2018-Jun-13 10:00N 32°45' W 091°09'4 7.6
2018-Jun-13 09:29N 32°49' W 091°09'9 4.8
2018-Jun-13 07:42N 32°58' W 091°09'1 2.9
2018-Jun-13 07:30N 32°58' W 091°10'  

Dump ship's entire track history